Time;durP1;ratioP1;P1;durP2;ratioP2;P2;SDS_P1;SDS_P2;PMS_P1;PMS_P2;Temp;Humidity;BMP_temperature;BMP_pressure;BME280_temperature;BME280_humidity;BME280_pressure;Samples;Min_cycle;Max_cycle;Signal;HPM_P1;HPM_P2
2022/03/15 00:01:31;;;;;;;14.57;9.00;;;;;;;3.18;100.00;102103.63;5061190;28;20231;-74
2022/03/15 00:03:58;;;;;;;20.63;9.47;;;;;;;2.95;100.00;102090.72;5054591;28;20650;-72
2022/03/15 00:06:25;;;;;;;17.03;9.70;;;;;;;3.03;100.00;102117.84;5054081;28;20218;-72
2022/03/15 00:08:52;;;;;;;14.13;9.63;;;;;;;2.89;100.00;102110.75;5066092;28;20221;-73
2022/03/15 00:11:20;;;;;;;16.43;10.13;;;;;;;2.54;100.00;102086.59;5068073;28;20689;-74
2022/03/15 00:13:47;;;;;;;19.97;10.73;;;;;;;2.57;100.00;102112.47;5064704;28;20198;-74
2022/03/15 00:16:14;;;;;;;19.77;9.43;;;;;;;2.40;100.00;102088.97;5073938;28;20229;-73
2022/03/15 00:18:41;;;;;;;21.10;9.80;;;;;;;2.40;100.00;102088.97;5073964;28;20202;-72
2022/03/15 00:21:12;;;;;;;15.77;10.37;;;;;;;2.39;100.00;102099.97;5073440;28;20191;-72
2022/03/15 00:23:39;;;;;;;16.20;10.33;;;;;;;2.35;100.00;102104.75;5073893;28;20207;-72
2022/03/15 00:26:06;;;;;;;14.97;9.77;;;;;;;2.27;100.00;102111.81;5060378;28;20678;-72
2022/03/15 00:28:35;;;;;;;18.43;10.53;;;;;;;2.21;100.00;102106.16;5053340;28;20196;-72
2022/03/15 00:31:04;;;;;;;18.43;11.33;;;;;;;2.18;100.00;102100.81;5053581;28;20201;-72
2022/03/15 00:33:30;;;;;;;18.57;11.43;;;;;;;2.15;100.00;102097.09;5054752;28;20203;-72
2022/03/15 00:35:59;;;;;;;15.17;10.00;;;;;;;1.88;100.00;102057.41;5057630;28;20223;-72
2022/03/15 00:38:26;;;;;;;15.83;11.43;;;;;;;2.14;100.00;102091.09;5073714;28;20255;-72
2022/03/15 00:40:53;;;;;;;19.77;11.37;;;;;;;2.03;100.00;102078.22;5054442;28;20282;-73
2022/03/15 00:43:19;;;;;;;19.23;11.67;;;;;;;2.06;100.00;102083.59;5052959;28;20195;-72
2022/03/15 00:45:48;;;;;;;16.57;11.33;;;;;;;2.04;100.00;102086.00;5053276;28;20688;-72
2022/03/15 00:48:15;;;;;;;20.33;11.87;;;;;;;1.86;100.00;102075.19;5053245;28;20192;-72
2022/03/15 00:50:42;;;;;;;18.43;11.30;;;;;;;1.94;100.00;102086.94;5053813;28;20199;-71
2022/03/15 00:53:10;;;;;;;21.57;11.60;;;;;;;1.93;100.00;102071.44;5067718;28;20612;-71
2022/03/15 00:55:37;;;;;;;18.50;11.47;;;;;;;2.03;100.00;102081.69;5067128;28;20254;-71
2022/03/15 00:58:05;;;;;;;20.17;10.67;;;;;;;1.88;100.00;102067.66;5052809;28;20286;-71
2022/03/15 01:00:32;;;;;;;18.27;10.57;;;;;;;1.97;100.00;102074.41;5053048;28;20207;-71
2022/03/15 01:03:00;;;;;;;16.93;10.63;;;;;;;1.99;100.00;102072.88;5052604;28;20623;-74
2022/03/15 01:05:27;;;;;;;16.57;10.17;;;;;;;1.84;100.00;102074.19;5053993;28;20219;-72
2022/03/15 01:07:54;;;;;;;24.73;12.30;;;;;;;1.84;100.00;102071.63;5052649;28;20191;-72
2022/03/15 01:10:21;;;;;;;18.27;11.07;;;;;;;1.69;100.00;102055.03;5053544;28;20194;-74
2022/03/15 01:12:48;;;;;;;18.73;11.33;;;;;;;1.72;100.00;102064.59;5072219;28;20230;-72
2022/03/15 01:15:15;;;;;;;17.17;10.33;;;;;;;1.72;100.00;102062.03;5055331;28;20215;-72
2022/03/15 01:17:42;;;;;;;21.27;11.07;;;;;;;1.66;100.00;102071.78;5053136;28;20203;-71
2022/03/15 01:20:11;;;;;;;31.23;14.27;;;;;;;1.75;100.00;102075.09;5071568;28;20632;-72
2022/03/15 01:22:39;;;;;;;50.37;17.90;;;;;;;1.90;100.00;102060.97;5072380;28;20199;-72
2022/03/15 01:25:06;;;;;;;33.13;14.70;;;;;;;1.53;100.00;102002.53;5060423;28;20257;-71
2022/03/15 01:27:34;;;;;;;30.23;14.37;;;;;;;1.81;100.00;102060.25;5052664;28;20207;-74
2022/03/15 01:30:01;;;;;;;30.07;13.80;;;;;;;1.78;100.00;102053.22;5060330;28;20622;-72
2022/03/15 01:32:28;;;;;;;26.30;14.83;;;;;;;1.72;100.00;102064.59;5072541;28;20252;-72
2022/03/15 01:34:54;;;;;;;31.50;15.13;;;;;;;1.68;100.00;102060.00;5072378;28;20580;-71
2022/03/15 01:37:23;;;;;;;32.37;15.53;;;;;;;1.70;100.00;102061.03;5062045;28;20195;-71
2022/03/15 01:39:50;;;;;;;31.77;15.20;;;;;;;1.50;100.00;102042.38;5052430;28;20191;-71
2022/03/15 01:42:16;;;;;;;28.33;14.50;;;;;;;1.63;100.00;102056.19;5052211;28;20261;-71
2022/03/15 01:44:47;;;;;;;25.97;12.93;;;;;;;1.51;100.00;102022.84;5053608;28;20282;-71
2022/03/15 01:47:14;;;;;;;27.47;14.33;;;;;;;1.50;100.00;102032.16;5071853;28;20251;-71
2022/03/15 01:49:41;;;;;;;32.13;14.27;;;;;;;1.55;100.00;102049.53;5056867;28;20237;-71
2022/03/15 01:52:12;;;;;;;27.93;14.90;;;;;;;1.63;100.00;102059.66;5051918;28;20696;-71
2022/03/15 01:54:41;;;;;;;25.77;14.07;;;;;;;1.56;100.00;102067.59;5052185;28;20199;-71
2022/03/15 01:57:08;;;;;;;25.53;14.60;;;;;;;1.46;100.00;102059.94;5060175;28;20191;-72
2022/03/15 01:59:36;;;;;;;28.43;15.30;;;;;;;1.47;100.00;102060.03;5072060;28;20320;-72
2022/03/15 02:02:04;;;;;;;37.03;16.40;;;;;;;1.47;100.00;102061.69;5071763;28;20266;-72
2022/03/15 02:04:32;;;;;;;28.67;14.97;;;;;;;1.39;100.00;102052.53;5071639;28;20199;-71
2022/03/15 02:07:03;;;;;;;25.10;14.40;;;;;;;1.31;100.00;102027.97;5069200;28;20591;-71
2022/03/15 02:09:30;;;;;;;25.73;14.13;;;;;;;1.39;100.00;102068.72;5051610;28;20673;-72
2022/03/15 02:11:58;;;;;;;26.97;14.63;;;;;;;1.39;100.00;102068.72;5064137;28;20195;-71
2022/03/15 02:14:25;;;;;;;28.60;14.57;;;;;;;1.40;100.00;102073.06;5069662;28;20195;-72
2022/03/15 02:16:52;;;;;;;27.97;14.37;;;;;;;1.38;100.00;102066.97;5051548;28;20300;-71
2022/03/15 02:19:19;;;;;;;26.50;14.93;;;;;;;1.05;100.00;102012.13;5051783;28;20287;-72
2022/03/15 02:21:48;;;;;;;22.97;13.30;;;;;;;1.37;100.00;102074.47;5051542;28;20199;-72
2022/03/15 02:24:15;;;;;;;25.60;13.50;;;;;;;1.35;100.00;102076.03;5050596;28;20198;-71
2022/03/15 02:26:41;;;;;;;24.37;13.23;;;;;;;1.16;100.00;102048.03;5060479;28;20198;-71
2022/03/15 02:29:09;;;;;;;24.53;13.23;;;;;;;1.25;100.00;102073.47;5071585;28;20194;-71
2022/03/15 02:31:35;;;;;;;20.53;12.27;;;;;;;1.27;100.00;102082.16;5071428;28;20217;-71
2022/03/15 02:34:02;;;;;;;24.10;12.67;;;;;;;0.91;100.00;102028.88;5071447;28;20206;-72
2022/03/15 02:36:29;;;;;;;21.27;12.90;;;;;;;1.18;100.00;102074.59;5057107;28;20219;-74
2022/03/15 02:38:57;;;;;;;19.60;11.83;;;;;;;1.26;100.00;102075.25;5051470;28;20196;-71
2022/03/15 02:41:24;;;;;;;26.37;12.80;;;;;;;1.24;100.00;102081.91;5051575;28;20663;-73
2022/03/15 02:43:51;;;;;;;22.40;12.97;;;;;;;1.28;100.00;102084.84;5051003;28;20202;-74
2022/03/15 02:46:18;;;;;;;23.03;14.50;;;;;;;1.26;100.00;102080.34;5051128;28;20238;-71
2022/03/15 02:48:45;;;;;;;23.80;12.97;;;;;;;1.23;100.00;102073.34;5051554;28;20278;-72
2022/03/15 02:51:12;;;;;;;23.63;12.60;;;;;;;1.24;100.00;102080.25;5051656;28;20203;-72
2022/03/15 02:53:40;;;;;;;25.07;13.87;;;;;;;1.24;100.00;102061.47;5051056;28;20192;-72
2022/03/15 02:56:11;;;;;;;19.73;12.23;;;;;;;1.12;100.00;102030.66;5039732;28;20773;-71
2022/03/15 02:58:38;;;;;;;23.13;13.60;;;;;;;1.30;100.00;102062.84;5071504;28;20661;-74
2022/03/15 03:01:05;;;;;;;22.80;13.23;;;;;;;1.32;100.00;102055.34;5071523;28;20217;-71
2022/03/15 03:03:32;;;;;;;25.37;13.83;;;;;;;1.26;100.00;102053.16;5061787;28;20591;-73
2022/03/15 03:05:59;;;;;;;24.00;13.80;;;;;;;1.33;100.00;102055.44;5062801;28;20206;-71
2022/03/15 03:08:27;;;;;;;26.13;13.50;;;;;;;1.42;100.00;102050.22;5071258;28;20186;-74
2022/03/15 03:10:55;;;;;;;29.37;15.57;;;;;;;1.42;100.00;102061.34;5071081;28;20695;-73
2022/03/15 03:13:26;;;;;;;28.30;15.13;;;;;;;1.38;100.00;102056.72;5062981;28;20779;-71
2022/03/15 03:15:56;;;;;;;29.50;16.57;;;;;;;1.37;100.00;102051.47;5051314;28;20235;-71
2022/03/15 03:18:24;;;;;;;28.30;16.07;;;;;;;1.35;100.00;102043.72;5069933;28;20199;-71
2022/03/15 03:20:51;;;;;;;28.03;16.00;;;;;;;1.27;100.00;102037.06;5071232;28;20574;-74
2022/03/15 03:23:17;;;;;;;32.07;16.30;;;;;;;1.33;100.00;102035.00;5071288;28;20195;-71
2022/03/15 03:25:44;;;;;;;27.77;16.80;;;;;;;1.20;100.00;102028.75;5071181;28;20201;-73
2022/03/15 03:28:13;;;;;;;30.03;15.83;;;;;;;1.25;100.00;102036.03;5071253;28;20202;-71
2022/03/15 03:30:46;;;;;;;29.47;15.17;;;;;;;1.23;100.00;102035.00;5070771;28;20191;-74
2022/03/15 03:33:13;;;;;;;26.17;13.93;;;;;;;1.29;100.00;101999.75;5055327;28;20198;-72
2022/03/15 03:35:40;;;;;;;26.50;14.17;;;;;;;1.45;100.00;102038.59;5053267;28;20232;-71
2022/03/15 03:38:07;;;;;;;26.77;13.00;;;;;;;1.42;100.00;102033.22;5061923;28;20191;-71
2022/03/15 03:40:34;;;;;;;21.73;12.13;;;;;;;1.50;100.00;102031.25;5074216;28;20618;-73
2022/03/15 03:43:01;;;;;;;20.33;12.10;;;;;;;1.55;100.00;102040.22;5074018;28;20263;-71
2022/03/15 03:45:27;;;;;;;77.47;33.63;;;;;;;1.50;100.00;102034.72;5074148;28;20285;-72
2022/03/15 03:47:56;;;;;;;30.10;15.37;;;;;;;1.47;100.00;102036.13;5074642;28;20198;-71
2022/03/15 03:50:22;;;;;;;26.27;14.63;;;;;;;1.44;100.00;102035.88;5072197;28;20699;-74
2022/03/15 03:52:49;;;;;;;24.77;14.77;;;;;;;1.38;100.00;102036.28;5059356;28;20190;-74
2022/03/15 03:55:16;;;;;;;25.13;14.97;;;;;;;1.28;100.00;102041.41;5074053;28;20256;-71
2022/03/15 03:57:43;;;;;;;39.33;19.00;;;;;;;1.19;100.00;102048.28;5073588;28;20627;-75
2022/03/15 04:00:10;;;;;;;39.43;20.33;;;;;;;1.18;100.00;102050.75;5034082;28;20705;-72
2022/03/15 04:02:37;;;;;;;36.13;20.43;;;;;;;1.23;100.00;102058.00;5040562;28;20265;-72
2022/03/15 04:05:06;;;;;;;62.07;26.27;;;;;;;1.24;100.00;102052.13;5066923;28;20202;-71
2022/03/15 04:07:34;;;;;;;50.17;24.90;;;;;;;1.33;100.00;102047.78;5052743;28;20597;-71
2022/03/15 04:10:01;;;;;;;56.80;28.37;;;;;;;1.26;100.00;102042.94;5061668;28;20201;-71
2022/03/15 04:12:29;;;;;;;72.60;31.53;;;;;;;1.21;100.00;102057.00;5060594;28;20195;-71
2022/03/15 04:14:57;;;;;;;62.80;31.60;;;;;;;1.13;100.00;102042.69;5059985;28;20249;-71
2022/03/15 04:17:24;;;;;;;59.53;30.40;;;;;;;1.10;100.00;102052.66;5045605;28;20216;-71
2022/03/15 04:19:51;;;;;;;64.10;30.17;;;;;;;1.09;100.00;102049.94;5056054;28;20226;-71
2022/03/15 04:22:19;;;;;;;61.00;28.20;;;;;;;1.04;100.00;102052.09;5064517;28;20523;-71
2022/03/15 04:24:46;;;;;;;53.77;27.73;;;;;;;0.99;100.00;102063.63;5053360;28;20634;-73
2022/03/15 04:27:13;;;;;;;71.30;39.23;;;;;;;0.94;100.00;102069.97;5068930;28;20703;-71
2022/03/15 04:29:40;;;;;;;43.00;25.43;;;;;;;0.98;100.00;102077.13;5064532;28;20203;-74
2022/03/15 04:32:07;;;;;;;50.43;27.43;;;;;;;0.98;100.00;102072.03;5062984;28;20191;-71
2022/03/15 04:34:34;;;;;;;47.20;26.53;;;;;;;0.83;100.00;102051.19;5053919;28;20200;-73
2022/03/15 04:37:01;;;;;;;53.00;28.17;;;;;;;0.83;100.00;102055.41;5065989;28;20219;-72
2022/03/15 04:39:29;;;;;;;53.27;28.03;;;;;;;0.80;100.00;102060.25;5053043;28;20195;-71
2022/03/15 04:41:56;;;;;;;69.30;29.90;;;;;;;0.80;100.00;102070.47;5062981;28;20689;-72
2022/03/15 04:44:23;;;;;;;60.20;29.23;;;;;;;0.85;100.00;102064.09;5054501;28;20223;-72
2022/03/15 04:46:50;;;;;;;60.47;29.00;;;;;;;0.87;100.00;102057.47;5052085;28;20219;-71
2022/03/15 04:49:17;;;;;;;65.57;29.93;;;;;;;1.00;100.00;102061.16;5052981;28;20669;-72
2022/03/15 04:51:44;;;;;;;71.83;32.23;;;;;;;0.97;100.00;102060.03;5063779;28;20195;-72
2022/03/15 04:54:10;;;;;;;79.83;32.43;;;;;;;0.99;100.00;102064.50;5071914;28;20237;-71
2022/03/15 04:56:39;;;;;;;81.60;34.93;;;;;;;1.03;100.00;102062.22;5060375;28;20613;-71
2022/03/15 04:59:06;;;;;;;73.90;33.27;;;;;;;1.14;100.00;102070.00;5072667;28;20233;-72
2022/03/15 05:01:32;;;;;;;78.23;36.60;;;;;;;1.24;100.00;102072.56;5056165;28;20187;-72
2022/03/15 05:03:59;;;;;;;71.63;34.73;;;;;;;1.29;100.00;102066.16;5052297;28;20204;-73
2022/03/15 05:06:26;;;;;;;75.60;35.70;;;;;;;1.34;100.00;102057.25;5052129;28;20761;-72
2022/03/15 05:08:53;;;;;;;90.90;36.27;;;;;;;1.41;100.00;102056.97;5065656;28;20586;-72
2022/03/15 05:11:20;;;;;;;74.73;32.90;;;;;;;1.50;100.00;102061.94;5064578;28;20249;-73
2022/03/15 05:13:49;;;;;;;63.43;33.03;;;;;;;1.61;100.00;102066.28;5061180;28;20191;-73
2022/03/15 05:16:19;;;;;;;56.60;26.73;;;;;;;1.65;100.00;102052.97;5058979;28;20660;-70
2022/03/15 05:18:46;;;;;;;55.40;25.63;;;;;;;1.68;100.00;102037.00;5048827;28;20195;-71
2022/03/15 05:21:14;;;;;;;48.70;25.10;;;;;;;1.72;100.00;102028.81;5053784;28;20200;-74
2022/03/15 05:23:41;;;;;;;57.40;30.10;;;;;;;1.96;100.00;102061.50;5050031;28;20278;-71
2022/03/15 05:26:08;;;;;;;74.53;33.87;;;;;;;1.86;100.00;102033.38;5051559;28;20203;-75
2022/03/15 05:28:34;;;;;;;60.97;30.93;;;;;;;2.02;100.00;102059.44;5034819;28;20682;-71
2022/03/15 05:31:03;;;;;;;81.43;40.03;;;;;;;2.15;100.00;102062.19;5039926;28;20575;-71
2022/03/15 05:33:30;;;;;;;80.33;35.83;;;;;;;2.09;100.00;102046.34;5051410;28;20200;-72
2022/03/15 05:35:56;;;;;;;74.63;32.00;;;;;;;2.27;100.00;102060.63;5053167;28;20284;-72
2022/03/15 05:38:24;;;;;;;60.93;31.80;;;;;;;2.48;100.00;102076.78;5036323;28;20204;-72
2022/03/15 05:40:51;;;;;;;79.60;37.93;;;;;;;2.54;100.00;102076.34;5049104;28;20690;-73
2022/03/15 05:43:19;;;;;;;102.67;45.77;;;;;;;2.65;100.00;102084.09;5038327;28;20199;-73
2022/03/15 05:45:45;;;;;;;108.90;45.20;;;;;;;2.85;100.00;102078.84;5044943;28;20223;-72
2022/03/15 05:48:14;;;;;;;80.87;35.53;;;;;;;3.05;100.00;102085.53;5047319;28;20196;-73
2022/03/15 05:50:41;;;;;;;55.90;27.47;;;;;;;3.14;100.00;102091.34;5032113;28;20203;-72
2022/03/15 05:53:08;;;;;;;39.47;22.10;;;;;;;2.98;100.00;102083.28;5051244;28;20203;-72
2022/03/15 05:55:35;;;;;;;43.17;23.07;;;;;;;2.92;100.00;102085.38;5050933;28;20691;-73
2022/03/15 05:58:03;;;;;;;48.33;24.37;;;;;;;2.91;100.00;102087.03;5044644;28;20220;-73
2022/03/15 06:00:32;;;;;;;54.13;24.00;;;;;;;2.89;100.00;102073.19;5039949;28;20203;-74
2022/03/15 06:02:59;;;;;;;64.73;27.77;;;;;;;3.13;100.00;102092.16;5050813;28;20584;-72
2022/03/15 06:05:27;;;;;;;61.90;27.33;;;;;;;3.15;100.00;102082.91;5052325;28;20585;-72
2022/03/15 06:07:54;;;;;;;36.30;20.13;;;;;;;3.27;100.00;102093.19;5052312;28;20188;-74
2022/03/15 06:10:23;;;;;;;40.50;20.60;;;;;;;2.73;100.00;102105.19;5062340;28;20639;-72
2022/03/15 06:12:51;;;;;;;40.07;23.27;;;;;;;2.97;100.00;102109.66;5063218;28;20207;-74
2022/03/15 06:15:22;;;;;;;47.00;25.37;;;;;;;3.24;100.00;102078.50;5062328;28;20628;-73
2022/03/15 06:17:52;;;;;;;37.30;21.77;;;;;;;3.74;100.00;102114.72;5051112;28;20341;-73
2022/03/15 06:20:20;;;;;;;37.57;21.90;;;;;;;3.75;100.00;102125.09;5051453;28;20581;-73
2022/03/15 06:22:48;;;;;;;38.17;20.33;;;;;;;3.89;100.00;102134.72;5051185;28;20203;-73
2022/03/15 06:25:16;;;;;;;45.50;23.40;;;;;;;3.92;100.00;102139.19;5051657;28;20191;-75
2022/03/15 06:27:43;;;;;;;34.20;17.40;;;;;;;3.97;100.00;102135.28;5061881;28;20195;-74
2022/03/15 06:30:12;;;;;;;27.70;17.93;;;;;;;3.51;100.00;102048.88;5055339;28;20202;-75
2022/03/15 06:32:40;;;;;;;26.80;16.53;;;;;;;3.58;100.00;102122.94;5062092;28;20199;-74
2022/03/15 06:35:09;;;;;;;34.30;21.03;;;;;;;3.73;100.00;102123.19;5050867;28;20215;-78
2022/03/15 06:37:40;;;;;;;33.87;19.00;;;;;;;3.76;100.00;102123.41;5030428;28;20231;-79
2022/03/15 06:40:10;;;;;;;32.50;18.87;;;;;;;3.94;100.00;102130.81;5030712;28;20326;-74
2022/03/15 06:42:38;;;;;;;33.10;18.90;;;;;;;3.77;100.00;102127.78;5036860;28;20290;-74
2022/03/15 06:45:06;;;;;;;39.20;21.83;;;;;;;4.10;100.00;102122.59;5049383;28;20281;-74
2022/03/15 06:47:33;;;;;;;38.20;20.80;;;;;;;4.33;100.00;102132.84;5050336;28;20709;-74
2022/03/15 06:50:00;;;;;;;44.70;22.43;;;;;;;4.10;100.00;102140.56;5030883;28;20222;-76
2022/03/15 06:52:27;;;;;;;40.67;21.03;;;;;;;4.44;100.00;102137.09;5030716;28;20287;-76
2022/03/15 06:54:55;;;;;;;43.40;21.00;;;;;;;4.55;100.00;102126.69;5030991;28;20200;-77
2022/03/15 06:57:23;;;;;;;38.27;22.67;;;;;;;4.83;100.00;102136.47;5031345;28;20319;-74
2022/03/15 06:59:50;;;;;;;38.17;20.80;;;;;;;5.05;100.00;102146.56;5031459;28;20632;-76
2022/03/15 07:02:17;;;;;;;36.27;19.90;;;;;;;5.49;100.00;102136.81;5031450;28;20258;-72
2022/03/15 07:04:43;;;;;;;40.23;20.30;;;;;;;5.37;100.00;102149.72;5031390;28;20287;-74
2022/03/15 07:07:10;;;;;;;38.27;18.70;;;;;;;5.21;98.74;102140.84;5046700;28;20188;-75
2022/03/15 07:09:37;;;;;;;41.17;21.07;;;;;;;5.38;98.02;102164.38;5051934;28;20740;-76
2022/03/15 07:12:05;;;;;;;36.83;18.23;;;;;;;5.03;96.62;102129.28;5054884;28;20206;-73
2022/03/15 07:14:33;;;;;;;39.73;19.80;;;;;;;5.27;96.80;102156.69;5053957;28;20354;-74
2022/03/15 07:17:00;;;;;;;36.53;20.30;;;;;;;5.13;98.43;102165.13;5054576;28;20227;-73
2022/03/15 07:19:27;;;;;;;52.23;24.93;;;;;;;5.37;97.56;102166.81;5054560;28;20195;-75
2022/03/15 07:21:54;;;;;;;36.23;19.87;;;;;;;5.59;94.37;102143.44;5054734;28;20719;-74
2022/03/15 07:24:21;;;;;;;46.53;20.60;;;;;;;5.72;92.07;102153.78;5054778;28;20195;-73
2022/03/15 07:26:48;;;;;;;53.83;22.53;;;;;;;5.71;91.94;102151.97;5054786;28;20207;-72
2022/03/15 07:29:15;;;;;;;48.23;22.43;;;;;;;5.53;93.08;102148.19;5054363;28;20199;-75
2022/03/15 07:31:43;;;;;;;56.13;25.50;;;;;;;5.57;91.71;102111.56;5055005;28;20214;-77
2022/03/15 07:34:10;;;;;;;49.33;25.30;;;;;;;5.68;89.63;102149.19;5054564;28;20196;-72
2022/03/15 07:36:37;;;;;;;47.97;23.40;;;;;;;5.78;88.81;102165.38;5045371;28;20228;-73
2022/03/15 07:39:05;;;;;;;55.37;24.53;;;;;;;5.82;87.52;102126.19;5051257;28;20223;-73
2022/03/15 07:41:34;;;;;;;49.07;22.07;;;;;;;6.12;83.65;102158.25;5053508;28;20245;-73
2022/03/15 07:44:01;;;;;;;50.60;23.67;;;;;;;5.89;82.15;102149.00;5052748;28;20317;-75
2022/03/15 07:46:28;;;;;;;54.23;24.93;;;;;;;5.80;84.27;102153.50;5053224;28;20231;-75
2022/03/15 07:48:56;;;;;;;43.33;22.23;;;;;;;6.07;82.28;102161.31;5053390;28;20234;-74
2022/03/15 07:51:23;;;;;;;40.17;20.27;;;;;;;5.83;82.17;102142.53;5053451;28;20704;-74
2022/03/15 07:53:50;;;;;;;40.30;20.77;;;;;;;6.18;nan;102165.47;5053930;28;20206;-73
2022/03/15 07:56:17;;;;;;;45.77;21.37;;;;;;;6.29;80.42;102142.22;5053600;28;20196;-73
2022/03/15 07:58:44;;;;;;;44.00;20.93;;;;;;;6.62;76.53;102164.13;5053897;28;20314;-74
2022/03/15 08:01:10;;;;;;;47.20;19.90;;;;;;;6.65;76.49;102166.88;5054374;28;20192;-74
2022/03/15 08:03:37;;;;;;;39.30;15.50;;;;;;;6.49;73.84;102159.84;5050578;28;20199;-75
2022/03/15 08:06:06;;;;;;;35.37;15.70;;;;;;;6.74;72.49;102151.13;5033977;28;20204;-72
2022/03/15 08:08:33;;;;;;;28.53;11.67;;;;;;;6.64;75.01;102159.94;5033952;28;20565;-74
2022/03/15 08:11:06;;;;;;;32.07;17.20;;;;;;;6.89;70.92;102162.38;5034123;28;20200;-73
2022/03/15 08:13:32;;;;;;;32.33;16.00;;;;;;;7.38;69.56;102150.84;5032924;28;20689;-74
2022/03/15 08:15:59;;;;;;;28.07;14.00;;;;;;;7.64;66.75;102144.66;5033835;28;20204;-75
2022/03/15 08:18:28;;;;;;;22.70;11.40;;;;;;;7.81;64.14;102149.16;5033453;28;20297;-77
2022/03/15 08:20:56;;;;;;;16.93;11.33;;;;;;;7.74;62.20;102126.34;5032551;28;20690;-74
2022/03/15 08:23:24;;;;;;;28.20;11.53;;;;;;;8.10;65.53;102146.53;5033262;28;20208;-74
2022/03/15 08:25:51;;;;;;;23.27;10.20;;;;;;;7.97;60.91;102138.91;5033715;28;20200;-75
2022/03/15 08:28:18;;;;;;;21.43;8.77;;;;;;;8.04;59.76;102141.03;5033685;28;20290;-72
2022/03/15 08:30:45;;;;;;;17.23;9.13;;;;;;;7.92;59.03;102133.47;5033614;28;20278;-73
2022/03/15 08:33:12;;;;;;;16.97;9.47;;;;;;;7.99;59.25;102139.88;5034599;28;20203;-73
2022/03/15 08:35:39;;;;;;;16.73;9.07;;;;;;;7.87;59.97;102126.25;5033112;28;20243;-73
2022/03/15 08:38:05;;;;;;;16.10;9.30;;;;;;;7.97;60.56;102141.47;5033085;28;20230;-73
2022/03/15 08:40:34;;;;;;;15.67;8.50;;;;;;;7.83;60.69;102139.78;5033548;28;20200;-74
2022/03/15 08:43:01;;;;;;;16.20;9.23;;;;;;;7.80;59.59;102137.03;5039163;28;20195;-74
2022/03/15 08:45:28;;;;;;;14.27;8.13;;;;;;;7.83;59.94;102137.19;5051529;28;20223;-74
2022/03/15 08:47:54;;;;;;;17.97;9.70;;;;;;;8.06;61.06;102134.28;5052483;28;20195;-73
2022/03/15 08:50:21;;;;;;;18.67;9.93;;;;;;;8.39;61.01;102133.63;5052706;28;20195;-73
2022/03/15 08:52:48;;;;;;;14.57;8.83;;;;;;;8.42;59.53;102136.38;5052861;28;20191;-73
2022/03/15 08:55:15;;;;;;;15.25;9.63;;;;;;;8.46;61.38;102130.59;5053145;28;20235;-73
2022/03/15 08:57:43;;;;;;;15.27;8.45;;;;;;;8.70;58.96;102133.69;5052804;28;20227;-74
2022/03/15 09:00:12;;;;;;;13.32;8.57;;;;;;;8.74;56.69;102129.56;5037046;28;20200;-74
2022/03/15 09:02:39;;;;;;;16.52;8.98;;;;;;;8.76;57.30;102120.19;5032575;28;20219;-74
2022/03/15 09:05:06;;;;;;;14.20;8.30;;;;;;;8.94;56.16;102116.00;5032711;28;20599;-74
2022/03/15 09:07:36;;;;;;;20.83;9.50;;;;;;;9.07;56.38;102118.44;5032979;28;20199;-74
2022/03/15 09:10:03;;;;;;;18.15;8.95;;;;;;;8.92;55.66;102066.75;5033376;28;20274;-73
2022/03/15 09:12:30;;;;;;;14.73;9.35;;;;;;;9.18;55.79;102124.19;5031717;28;20219;-73
2022/03/15 09:14:58;;;;;;;20.42;9.27;;;;;;;9.02;54.75;102113.84;5032333;28;20196;-74
2022/03/15 09:17:25;;;;;;;39.30;9.60;;;;;;;9.15;54.60;102118.84;5032756;28;20216;-74
2022/03/15 09:19:51;;;;;;;21.95;9.40;;;;;;;9.18;55.16;102126.78;5032650;28;20196;-74
2022/03/15 09:22:19;;;;;;;13.73;8.32;;;;;;;8.96;55.13;102065.22;5033060;28;20200;-74
2022/03/15 09:24:45;;;;;;;17.90;7.85;;;;;;;9.27;54.61;102116.91;5032496;28;20196;-74
2022/03/15 09:27:13;;;;;;;14.68;9.52;;;;;;;9.08;54.17;102070.16;5032381;28;20199;-74
2022/03/15 09:29:40;;;;;;;12.25;6.45;;;;;;;9.33;53.35;102112.94;5032308;28;20567;-74
2022/03/15 09:32:10;;;;;;;19.47;10.50;;;;;;;9.18;52.39;102065.53;5032405;28;20204;-74
2022/03/15 09:34:37;;;;;;;20.35;12.15;;;;;;;9.58;50.91;102109.03;5032392;28;20207;-74
2022/03/15 09:37:05;;;;;;;14.18;8.25;;;;;;;9.41;51.04;102095.22;5032597;28;20200;-74
2022/03/15 09:39:32;;;;;;;53.40;22.85;;;;;;;9.73;49.77;102095.19;5032338;28;20196;-74
2022/03/15 09:42:00;;;;;;;14.90;9.93;;;;;;;9.76;49.54;102069.41;5032623;28;20199;-74
2022/03/15 09:44:30;;;;;;;21.40;9.23;;;;;;;9.91;50.28;102069.28;5031680;28;20609;-75
2022/03/15 09:47:02;;;;;;;16.08;9.10;;;;;;;10.07;52.13;102081.28;5031959;28;20231;-74
2022/03/15 09:49:32;;;;;;;20.55;8.88;;;;;;;10.19;51.87;102056.91;5032148;28;20261;-74
2022/03/15 09:52:00;;;;;;;16.33;9.20;;;;;;;10.54;51.47;102084.50;5032353;28;20197;-74
2022/03/15 09:54:29;;;;;;;14.82;9.13;;;;;;;10.42;51.47;102077.00;5031922;28;20246;-75
2022/03/15 09:56:57;;;;;;;15.02;8.25;;;;;;;10.01;51.43;102084.47;5032443;28;20203;-75
2022/03/15 09:59:25;;;;;;;13.25;7.30;;;;;;;10.27;51.86;102073.69;5032285;28;20262;-74
2022/03/15 10:01:54;;;;;;;16.90;8.95;;;;;;;10.18;51.45;102064.59;5031886;28;20592;-74
2022/03/15 10:04:22;;;;;;;16.80;8.13;;;;;;;10.24;50.43;102055.38;5031567;28;20196;-74
2022/03/15 10:06:51;;;;;;;11.80;8.38;;;;;;;10.37;49.41;102011.09;5031934;28;20203;-74
2022/03/15 10:09:18;;;;;;;12.40;7.82;;;;;;;10.83;49.00;102052.13;5031938;28;20203;-73
2022/03/15 10:11:45;;;;;;;10.13;7.45;;;;;;;10.88;47.19;102048.00;5031644;28;20674;-74
2022/03/15 10:14:12;;;;;;;14.43;7.30;;;;;;;10.84;47.17;102007.19;5031095;28;20670;-74
2022/03/15 10:16:41;;;;;;;10.80;7.50;;;;;;;11.11;46.29;102038.66;5031997;28;20588;-74
2022/03/15 10:19:09;;;;;;;15.32;7.72;;;;;;;10.90;46.66;101978.91;5031856;28;20327;-75
2022/03/15 10:21:46;;;;;;;12.30;7.55;;;;;;;10.93;46.06;102004.97;5031926;28;20227;-74
2022/03/15 10:24:18;;;;;;;11.95;7.88;;;;;;;11.17;45.88;102032.00;5032126;28;20196;-74
2022/03/15 10:26:46;;;;;;;12.38;8.18;;;;;;;11.33;44.99;102028.38;5031895;28;20658;-74
2022/03/15 10:29:14;;;;;;;14.05;7.85;;;;;;;11.02;45.06;102014.91;5031897;28;20349;-74
2022/03/15 10:31:41;;;;;;;12.52;8.10;;;;;;;11.24;45.01;102013.28;5031644;28;20188;-76
2022/03/15 10:34:09;;;;;;;15.40;7.55;;;;;;;11.09;45.69;101991.88;5031731;28;20614;-73
2022/03/15 10:36:38;;;;;;;17.58;7.25;;;;;;;11.23;45.68;101984.66;5031460;28;20702;-74
2022/03/15 10:39:05;;;;;;;14.95;9.13;;;;;;;11.67;44.64;101986.50;5031554;28;20801;-73
2022/03/15 10:41:43;;;;;;;13.63;8.73;;;;;;;12.34;44.31;101983.19;5031330;28;20686;-74
2022/03/15 10:44:19;;;;;;;24.20;8.60;;;;;;;12.33;42.91;101978.84;5030691;28;20606;-73
2022/03/15 10:46:57;;;;;;;12.88;8.50;;;;;;;12.21;42.64;101973.13;5035242;28;20769;-73
2022/03/15 10:49:24;;;;;;;11.50;7.60;;;;;;;12.20;41.99;101968.75;5035669;28;20286;-73
2022/03/15 10:51:51;;;;;;;13.05;8.27;;;;;;;12.30;42.35;101963.13;5035441;28;20199;-73
2022/03/15 10:54:18;;;;;;;16.13;8.45;;;;;;;12.59;41.23;101958.09;5035342;28;20574;-73
2022/03/15 10:56:54;;;;;;;14.57;8.15;;;;;;;12.74;41.96;101958.63;5035433;28;20195;-73
2022/03/15 10:59:22;;;;;;;14.93;7.63;;;;;;;12.14;42.64;101947.72;5035465;28;20238;-76
2022/03/15 11:01:51;;;;;;;14.82;8.50;;;;;;;12.39;42.49;101954.75;5035177;28;20715;-74
2022/03/15 11:04:18;;;;;;;14.35;8.70;;;;;;;12.53;41.74;101931.84;5035266;28;20199;-74
2022/03/15 11:06:47;;;;;;;15.18;8.40;;;;;;;12.67;41.32;101948.84;5035154;28;20200;-74
2022/03/15 11:09:19;;;;;;;23.20;9.88;;;;;;;12.93;40.96;101930.72;5035150;28;20204;-75
2022/03/15 11:11:47;;;;;;;12.90;9.77;;;;;;;12.46;40.75;101889.09;5034920;28;20203;-75
2022/03/15 11:14:15;;;;;;;12.98;8.20;;;;;;;12.69;39.86;101942.88;5034699;28;20228;-75
2022/03/15 11:16:48;;;;;;;11.65;7.63;;;;;;;12.30;39.33;101934.50;5035250;28;20224;-74